sensor_id;sensor_type;location;lat;lon;timestamp;pressure;altitude;pressure_sealevel;temperature;humidity
57000;BME280;42891;50.006;21.964;2022-10-16T00:00:36;99320.50;;;13.76;77.16
57000;BME280;42891;50.006;21.964;2022-10-16T00:04:37;99311.31;;;13.71;76.82
57000;BME280;42891;50.006;21.964;2022-10-16T00:08:37;99306.47;;;13.66;77.00
57000;BME280;42891;50.006;21.964;2022-10-16T00:12:38;99297.50;;;13.67;76.86
57000;BME280;42891;50.006;21.964;2022-10-16T00:16:38;99307.28;;;13.67;77.21
57000;BME280;42891;50.006;21.964;2022-10-16T00:20:39;99309.28;;;13.64;77.33
57000;BME280;42891;50.006;21.964;2022-10-16T00:24:39;99305.75;;;13.64;77.42
57000;BME280;42891;50.006;21.964;2022-10-16T00:28:39;99319.19;;;13.62;77.85
57000;BME280;42891;50.006;21.964;2022-10-16T00:32:40;99327.44;;;13.59;77.68
57000;BME280;42891;50.006;21.964;2022-10-16T00:36:40;99334.44;;;13.60;77.77
57000;BME280;42891;50.006;21.964;2022-10-16T00:40:40;99334.69;;;13.57;77.96
57000;BME280;42891;50.006;21.964;2022-10-16T00:48:55;99335.00;;;13.54;77.86
57000;BME280;42891;50.006;21.964;2022-10-16T00:52:58;99342.84;;;13.46;78.47
57000;BME280;42891;50.006;21.964;2022-10-16T00:57:04;99347.38;;;13.26;79.19
57000;BME280;42891;50.006;21.964;2022-10-16T01:01:05;99349.88;;;13.37;78.45
57000;BME280;42891;50.006;21.964;2022-10-16T01:05:05;99360.47;;;13.37;78.92
57000;BME280;42891;50.006;21.964;2022-10-16T01:13:32;99354.06;;;13.30;78.76
57000;BME280;42891;50.006;21.964;2022-10-16T01:17:43;99352.09;;;13.32;78.35
57000;BME280;42891;50.006;21.964;2022-10-16T01:21:47;99357.56;;;13.21;79.09
57000;BME280;42891;50.006;21.964;2022-10-16T01:34:15;99377.47;;;13.44;77.89
57000;BME280;42891;50.006;21.964;2022-10-16T01:38:29;99352.38;;;13.29;77.98
57000;BME280;42891;50.006;21.964;2022-10-16T01:42:35;99365.09;;;13.35;77.91
57000;BME280;42891;50.006;21.964;2022-10-16T01:46:39;99377.94;;;13.40;77.79
57000;BME280;42891;50.006;21.964;2022-10-16T01:50:43;99379.72;;;13.39;77.72
57000;BME280;42891;50.006;21.964;2022-10-16T01:54:46;99381.00;;;13.35;77.96
57000;BME280;42891;50.006;21.964;2022-10-16T01:59:16;99386.81;;;13.49;77.70
57000;BME280;42891;50.006;21.964;2022-10-16T02:03:18;99374.41;;;13.39;77.25
57000;BME280;42891;50.006;21.964;2022-10-16T02:07:19;99371.25;;;13.36;77.83
57000;BME280;42891;50.006;21.964;2022-10-16T02:11:20;99381.97;;;13.44;77.38
57000;BME280;42891;50.006;21.964;2022-10-16T02:15:20;99375.94;;;13.42;77.03
57000;BME280;42891;50.006;21.964;2022-10-16T02:19:21;99376.53;;;13.36;77.28
57000;BME280;42891;50.006;21.964;2022-10-16T02:23:35;99388.69;;;13.38;77.40
57000;BME280;42891;50.006;21.964;2022-10-16T02:31:50;99400.16;;;13.19;77.92
57000;BME280;42891;50.006;21.964;2022-10-16T02:35:53;99407.97;;;13.11;78.32
57000;BME280;42891;50.006;21.964;2022-10-16T02:39:56;99374.50;;;12.90;78.31
57000;BME280;42891;50.006;21.964;2022-10-16T02:43:57;99411.06;;;13.06;78.51
57000;BME280;42891;50.006;21.964;2022-10-16T02:47:57;99391.66;;;13.06;78.51
57000;BME280;42891;50.006;21.964;2022-10-16T02:51:58;99396.94;;;13.16;78.54
57000;BME280;42891;50.006;21.964;2022-10-16T02:55:58;99395.41;;;13.13;78.55
57000;BME280;42891;50.006;21.964;2022-10-16T02:59:58;99392.34;;;13.18;78.35
57000;BME280;42891;50.006;21.964;2022-10-16T03:03:59;99398.19;;;13.11;78.72
57000;BME280;42891;50.006;21.964;2022-10-16T03:07:59;99392.88;;;13.21;78.24
57000;BME280;42891;50.006;21.964;2022-10-16T03:12:00;99371.28;;;13.16;78.34
57000;BME280;42891;50.006;21.964;2022-10-16T03:16:01;99398.59;;;13.26;78.00
57000;BME280;42891;50.006;21.964;2022-10-16T03:20:01;99397.94;;;13.15;78.43
57000;BME280;42891;50.006;21.964;2022-10-16T03:24:02;99398.59;;;13.26;78.13
57000;BME280;42891;50.006;21.964;2022-10-16T03:28:02;99410.00;;;13.27;78.22
57000;BME280;42891;50.006;21.964;2022-10-16T03:32:03;99407.25;;;13.28;78.08
57000;BME280;42891;50.006;21.964;2022-10-16T03:36:03;99416.34;;;13.36;78.14
57000;BME280;42891;50.006;21.964;2022-10-16T03:40:05;99410.28;;;13.34;78.09
57000;BME280;42891;50.006;21.964;2022-10-16T03:44:05;99411.72;;;13.38;77.81
57000;BME280;42891;50.006;21.964;2022-10-16T03:48:05;99414.34;;;13.38;77.75
57000;BME280;42891;50.006;21.964;2022-10-16T03:52:06;99422.03;;;13.41;77.72
57000;BME280;42891;50.006;21.964;2022-10-16T03:56:06;99416.88;;;13.39;77.80
57000;BME280;42891;50.006;21.964;2022-10-16T04:00:07;99411.72;;;13.38;77.60
57000;BME280;42891;50.006;21.964;2022-10-16T04:04:08;99403.19;;;13.34;77.51
57000;BME280;42891;50.006;21.964;2022-10-16T04:08:08;99397.63;;;13.27;77.17
57000;BME280;42891;50.006;21.964;2022-10-16T04:12:08;99434.75;;;13.37;77.77
57000;BME280;42891;50.006;21.964;2022-10-16T04:16:09;99429.31;;;13.39;77.65
57000;BME280;42891;50.006;21.964;2022-10-16T04:20:09;99420.22;;;13.41;78.00
57000;BME280;42891;50.006;21.964;2022-10-16T04:24:09;99431.25;;;13.46;77.63
57000;BME280;42891;50.006;21.964;2022-10-16T04:28:11;99446.44;;;13.54;77.80
57000;BME280;42891;50.006;21.964;2022-10-16T04:32:11;99439.44;;;13.53;78.21
57000;BME280;42891;50.006;21.964;2022-10-16T04:36:12;99444.47;;;13.56;78.27
57000;BME280;42891;50.006;21.964;2022-10-16T04:40:13;99437.66;;;13.54;77.99
57000;BME280;42891;50.006;21.964;2022-10-16T04:44:14;99454.25;;;13.56;78.93
57000;BME280;42891;50.006;21.964;2022-10-16T04:48:14;99461.91;;;13.59;78.18
57000;BME280;42891;50.006;21.964;2022-10-16T04:52:14;99461.66;;;13.52;78.89
57000;BME280;42891;50.006;21.964;2022-10-16T04:56:15;99475.88;;;13.61;77.83
57000;BME280;42891;50.006;21.964;2022-10-16T05:00:15;99435.72;;;13.36;77.46
57000;BME280;42891;50.006;21.964;2022-10-16T05:04:16;99471.00;;;13.56;77.85
57000;BME280;42891;50.006;21.964;2022-10-16T05:08:16;99484.97;;;13.58;77.69
57000;BME280;42891;50.006;21.964;2022-10-16T05:12:16;99476.31;;;13.56;77.77
57000;BME280;42891;50.006;21.964;2022-10-16T05:16:17;99475.59;;;13.54;77.42
57000;BME280;42891;50.006;21.964;2022-10-16T05:20:17;99477.44;;;13.54;77.08
57000;BME280;42891;50.006;21.964;2022-10-16T05:24:17;99483.41;;;13.56;77.45
57000;BME280;42891;50.006;21.964;2022-10-16T05:28:18;99486.38;;;13.53;77.14
57000;BME280;42891;50.006;21.964;2022-10-16T05:32:18;99473.13;;;13.43;77.35
57000;BME280;42891;50.006;21.964;2022-10-16T05:36:19;99492.50;;;13.53;77.24
57000;BME280;42891;50.006;21.964;2022-10-16T05:40:19;99503.09;;;13.63;76.72
57000;BME280;42891;50.006;21.964;2022-10-16T05:44:19;99502.13;;;13.64;76.84
57000;BME280;42891;50.006;21.964;2022-10-16T05:48:20;99497.94;;;13.61;76.80
57000;BME280;42891;50.006;21.964;2022-10-16T05:52:20;99491.53;;;13.54;76.81
57000;BME280;42891;50.006;21.964;2022-10-16T05:56:21;99500.72;;;13.60;77.05
57000;BME280;42891;50.006;21.964;2022-10-16T06:00:21;99491.38;;;13.56;76.63
57000;BME280;42891;50.006;21.964;2022-10-16T06:04:21;99510.09;;;13.64;76.74
57000;BME280;42891;50.006;21.964;2022-10-16T06:08:22;99528.06;;;13.80;76.97
57000;BME280;42891;50.006;21.964;2022-10-16T06:12:22;99499.16;;;13.67;76.36
57000;BME280;42891;50.006;21.964;2022-10-16T06:16:24;99528.31;;;13.87;76.92
57000;BME280;42891;50.006;21.964;2022-10-16T06:20:26;99536.84;;;13.90;76.36
57000;BME280;42891;50.006;21.964;2022-10-16T06:24:26;99511.75;;;13.75;76.20
57000;BME280;42891;50.006;21.964;2022-10-16T06:28:26;99540.59;;;13.88;75.24
57000;BME280;42891;50.006;21.964;2022-10-16T06:32:27;99546.19;;;13.94;75.31
57000;BME280;42891;50.006;21.964;2022-10-16T06:36:27;99542.72;;;13.84;75.26
57000;BME280;42891;50.006;21.964;2022-10-16T06:40:28;99559.16;;;13.97;74.88
57000;BME280;42891;50.006;21.964;2022-10-16T06:44:28;99568.81;;;13.98;75.05
57000;BME280;42891;50.006;21.964;2022-10-16T06:48:29;99556.94;;;13.93;74.65
57000;BME280;42891;50.006;21.964;2022-10-16T06:52:29;99584.41;;;14.11;74.42
57000;BME280;42891;50.006;21.964;2022-10-16T06:56:30;99583.16;;;14.15;73.95
57000;BME280;42891;50.006;21.964;2022-10-16T07:00:31;99576.16;;;14.24;74.31
57000;BME280;42891;50.006;21.964;2022-10-16T07:04:31;99570.13;;;14.22;74.19
57000;BME280;42891;50.006;21.964;2022-10-16T07:08:32;99577.16;;;14.13;73.98
57000;BME280;42891;50.006;21.964;2022-10-16T07:12:33;99577.28;;;14.22;73.98
57000;BME280;42891;50.006;21.964;2022-10-16T07:16:33;99588.28;;;14.27;74.07
57000;BME280;42891;50.006;21.964;2022-10-16T07:20:33;99593.03;;;14.33;73.55
57000;BME280;42891;50.006;21.964;2022-10-16T07:24:34;99583.34;;;14.42;73.56
57000;BME280;42891;50.006;21.964;2022-10-16T07:28:34;99569.13;;;14.33;73.36
57000;BME280;42891;50.006;21.964;2022-10-16T07:32:37;99602.59;;;14.54;73.77
57000;BME280;42891;50.006;21.964;2022-10-16T07:36:38;99582.78;;;14.48;73.06
57000;BME280;42891;50.006;21.964;2022-10-16T07:40:38;99588.66;;;14.42;72.67
57000;BME280;42891;50.006;21.964;2022-10-16T07:44:38;99619.47;;;14.72;72.42
57000;BME280;42891;50.006;21.964;2022-10-16T07:48:40;99579.50;;;14.54;72.71
57000;BME280;42891;50.006;21.964;2022-10-16T07:52:45;99627.22;;;14.83;71.95
57000;BME280;42891;50.006;21.964;2022-10-16T07:56:46;99624.28;;;14.87;71.49
57000;BME280;42891;50.006;21.964;2022-10-16T08:00:46;99613.50;;;14.88;72.42
57000;BME280;42891;50.006;21.964;2022-10-16T08:04:46;99613.63;;;14.87;71.88
57000;BME280;42891;50.006;21.964;2022-10-16T08:08:47;99605.13;;;14.83;71.42
57000;BME280;42891;50.006;21.964;2022-10-16T08:12:48;99619.00;;;15.05;71.64
57000;BME280;42891;50.006;21.964;2022-10-16T08:16:48;99621.31;;;15.17;70.93
57000;BME280;42891;50.006;21.964;2022-10-16T08:20:55;99604.13;;;15.12;71.01
57000;BME280;42891;50.006;21.964;2022-10-16T08:24:56;99615.75;;;15.29;69.18
57000;BME280;42891;50.006;21.964;2022-10-16T08:28:57;99626.19;;;15.40;68.77
57000;BME280;42891;50.006;21.964;2022-10-16T08:32:57;99643.81;;;15.59;67.96
57000;BME280;42891;50.006;21.964;2022-10-16T08:36:59;99618.41;;;15.65;67.76
57000;BME280;42891;50.006;21.964;2022-10-16T08:41:24;99633.63;;;15.91;67.19
57000;BME280;42891;50.006;21.964;2022-10-16T08:50:02;99624.59;;;16.10;65.57
57000;BME280;42891;50.006;21.964;2022-10-16T08:54:29;99625.47;;;16.18;64.34
57000;BME280;42891;50.006;21.964;2022-10-16T08:58:32;99618.72;;;16.24;64.30
57000;BME280;42891;50.006;21.964;2022-10-16T09:02:37;99620.00;;;16.46;64.68
57000;BME280;42891;50.006;21.964;2022-10-16T09:11:09;99635.31;;;16.79;63.09
57000;BME280;42891;50.006;21.964;2022-10-16T09:19:39;99644.72;;;16.91;62.86
57000;BME280;42891;50.006;21.964;2022-10-16T09:23:42;99643.06;;;16.90;62.55
57000;BME280;42891;50.006;21.964;2022-10-16T09:27:47;99643.75;;;17.00;61.67
57000;BME280;42891;50.006;21.964;2022-10-16T09:31:47;99661.97;;;17.13;61.16
57000;BME280;42891;50.006;21.964;2022-10-16T09:35:56;99634.75;;;17.01;59.86
57000;BME280;42891;50.006;21.964;2022-10-16T09:39:58;99646.06;;;16.95;59.62
57000;BME280;42891;50.006;21.964;2022-10-16T09:44:00;99658.28;;;17.06;59.97
57000;BME280;42891;50.006;21.964;2022-10-16T09:48:10;99648.22;;;16.92;60.60
57000;BME280;42891;50.006;21.964;2022-10-16T09:52:13;99662.41;;;17.00;60.52
57000;BME280;42891;50.006;21.964;2022-10-16T09:56:43;99655.47;;;17.08;59.89
57000;BME280;42891;50.006;21.964;2022-10-16T10:00:53;99665.31;;;17.15;60.30
57000;BME280;42891;50.006;21.964;2022-10-16T10:04:54;99669.16;;;17.21;59.72
57000;BME280;42891;50.006;21.964;2022-10-16T10:08:58;99667.84;;;17.33;59.96
57000;BME280;42891;50.006;21.964;2022-10-16T10:13:00;99648.84;;;17.45;59.25
57000;BME280;42891;50.006;21.964;2022-10-16T10:17:22;99670.75;;;17.65;58.42
57000;BME280;42891;50.006;21.964;2022-10-16T10:21:22;99654.53;;;17.50;58.40
57000;BME280;42891;50.006;21.964;2022-10-16T10:30:01;99668.75;;;17.75;58.42
57000;BME280;42891;50.006;21.964;2022-10-16T10:38:31;99655.59;;;17.98;58.65
57000;BME280;42891;50.006;21.964;2022-10-16T10:51:07;99636.34;;;18.28;58.00
57000;BME280;42891;50.006;21.964;2022-10-16T10:56:16;99632.66;;;18.37;56.61
57000;BME280;42891;50.006;21.964;2022-10-16T11:00:42;99633.28;;;18.47;57.12
57000;BME280;42891;50.006;21.964;2022-10-16T11:04:49;99638.28;;;18.50;56.49
57000;BME280;42891;50.006;21.964;2022-10-16T11:09:12;99641.00;;;18.42;55.64
57000;BME280;42891;50.006;21.964;2022-10-16T11:17:39;99644.09;;;18.70;54.97
57000;BME280;42891;50.006;21.964;2022-10-16T11:26:14;99646.09;;;19.16;53.72
57000;BME280;42891;50.006;21.964;2022-10-16T11:30:23;99636.78;;;19.82;51.67
57000;BME280;42891;50.006;21.964;2022-10-16T11:34:47;99648.09;;;20.75;48.96
57000;BME280;42891;50.006;21.964;2022-10-16T11:39:11;99644.44;;;21.49;47.01
57000;BME280;42891;50.006;21.964;2022-10-16T11:43:35;99644.00;;;22.17;44.52
57000;BME280;42891;50.006;21.964;2022-10-16T11:47:48;99635.31;;;22.85;43.72
57000;BME280;42891;50.006;21.964;2022-10-16T11:52:22;99623.22;;;23.16;42.76
57000;BME280;42891;50.006;21.964;2022-10-16T11:56:24;99647.34;;;23.51;41.70
57000;BME280;42891;50.006;21.964;2022-10-16T12:00:28;99647.28;;;23.18;41.97
57000;BME280;42891;50.006;21.964;2022-10-16T12:04:48;99639.69;;;23.68;41.37
57000;BME280;42891;50.006;21.964;2022-10-16T12:08:52;99636.00;;;23.96;41.15
57000;BME280;42891;50.006;21.964;2022-10-16T12:12:53;99616.91;;;24.24;39.89
57000;BME280;42891;50.006;21.964;2022-10-16T12:16:59;99631.00;;;23.73;40.95
57000;BME280;42891;50.006;21.964;2022-10-16T12:21:00;99628.34;;;23.93;39.84
57000;BME280;42891;50.006;21.964;2022-10-16T12:25:20;99625.03;;;23.97;39.79
57000;BME280;42891;50.006;21.964;2022-10-16T12:29:39;99632.28;;;23.97;39.83
57000;BME280;42891;50.006;21.964;2022-10-16T12:33:51;99625.06;;;24.76;40.03
57000;BME280;42891;50.006;21.964;2022-10-16T12:37:54;99630.75;;;25.07;38.61
57000;BME280;42891;50.006;21.964;2022-10-16T12:42:19;99640.00;;;24.85;37.68
57000;BME280;42891;50.006;21.964;2022-10-16T12:46:34;99632.97;;;24.78;37.21
57000;BME280;42891;50.006;21.964;2022-10-16T12:50:37;99637.38;;;25.17;36.42
57000;BME280;42891;50.006;21.964;2022-10-16T12:54:38;99623.31;;;25.47;36.08
57000;BME280;42891;50.006;21.964;2022-10-16T12:58:50;99640.81;;;25.38;36.15
57000;BME280;42891;50.006;21.964;2022-10-16T13:16:13;99650.19;;;26.43;34.32
57000;BME280;42891;50.006;21.964;2022-10-16T13:28:30;99649.75;;;27.02;33.02
57000;BME280;42891;50.006;21.964;2022-10-16T13:32:32;99655.25;;;27.44;32.50
57000;BME280;42891;50.006;21.964;2022-10-16T13:36:44;99663.97;;;27.88;31.56
57000;BME280;42891;50.006;21.964;2022-10-16T13:41:01;99666.50;;;28.26;31.42
57000;BME280;42891;50.006;21.964;2022-10-16T13:45:02;99651.97;;;28.08;30.89
57000;BME280;42891;50.006;21.964;2022-10-16T13:49:13;99668.59;;;27.88;31.63
57000;BME280;42891;50.006;21.964;2022-10-16T13:53:14;99672.38;;;27.45;31.66
57000;BME280;42891;50.006;21.964;2022-10-16T13:57:15;99638.88;;;27.51;31.50
57000;BME280;42891;50.006;21.964;2022-10-16T14:01:28;99658.94;;;27.01;32.13
57000;BME280;42891;50.006;21.964;2022-10-16T14:05:29;99678.53;;;27.52;32.60
57000;BME280;42891;50.006;21.964;2022-10-16T14:09:30;99667.03;;;26.64;32.90
57000;BME280;42891;50.006;21.964;2022-10-16T14:13:37;99669.59;;;25.90;34.37
57000;BME280;42891;50.006;21.964;2022-10-16T14:17:43;99647.84;;;25.00;34.98
57000;BME280;42891;50.006;21.964;2022-10-16T14:21:44;99677.91;;;24.65;36.38
57000;BME280;42891;50.006;21.964;2022-10-16T14:25:45;99656.94;;;24.14;37.28
57000;BME280;42891;50.006;21.964;2022-10-16T14:29:45;99657.38;;;23.91;38.26
57000;BME280;42891;50.006;21.964;2022-10-16T14:33:45;99676.72;;;22.84;39.66
57000;BME280;42891;50.006;21.964;2022-10-16T14:37:46;99670.69;;;22.75;40.57
57000;BME280;42891;50.006;21.964;2022-10-16T14:41:51;99687.88;;;22.46;40.86
57000;BME280;42891;50.006;21.964;2022-10-16T14:45:54;99684.94;;;21.69;42.83
57000;BME280;42891;50.006;21.964;2022-10-16T14:49:55;99676.59;;;21.57;43.22
57000;BME280;42891;50.006;21.964;2022-10-16T14:53:58;99688.28;;;21.35;43.67
57000;BME280;42891;50.006;21.964;2022-10-16T14:57:59;99672.53;;;21.32;43.83
57000;BME280;42891;50.006;21.964;2022-10-16T15:02:00;99679.44;;;21.04;44.45
57000;BME280;42891;50.006;21.964;2022-10-16T15:06:13;99676.31;;;21.16;45.41
57000;BME280;42891;50.006;21.964;2022-10-16T15:10:16;99692.91;;;20.89;45.45
57000;BME280;42891;50.006;21.964;2022-10-16T15:14:16;99693.28;;;20.71;46.36
57000;BME280;42891;50.006;21.964;2022-10-16T15:18:16;99708.25;;;20.95;45.81
57000;BME280;42891;50.006;21.964;2022-10-16T15:22:20;99708.81;;;20.91;46.31
57000;BME280;42891;50.006;21.964;2022-10-16T15:26:25;99697.78;;;20.86;47.03
57000;BME280;42891;50.006;21.964;2022-10-16T15:30:26;99676.56;;;20.61;46.78
57000;BME280;42891;50.006;21.964;2022-10-16T15:34:26;99702.47;;;20.54;47.08
57000;BME280;42891;50.006;21.964;2022-10-16T15:38:27;99707.22;;;20.52;47.37
57000;BME280;42891;50.006;21.964;2022-10-16T15:42:28;99697.25;;;20.22;47.59
57000;BME280;42891;50.006;21.964;2022-10-16T15:46:28;99688.00;;;20.10;48.14
57000;BME280;42891;50.006;21.964;2022-10-16T15:50:31;99693.94;;;19.97;48.35
57000;BME280;42891;50.006;21.964;2022-10-16T15:54:32;99697.03;;;19.86;48.64
57000;BME280;42891;50.006;21.964;2022-10-16T15:58:32;99709.66;;;19.77;49.07
57000;BME280;42891;50.006;21.964;2022-10-16T16:02:32;99712.50;;;19.84;49.09
57000;BME280;42891;50.006;21.964;2022-10-16T16:06:33;99720.41;;;19.69;49.64
57000;BME280;42891;50.006;21.964;2022-10-16T16:10:33;99731.66;;;19.64;50.03
57000;BME280;42891;50.006;21.964;2022-10-16T16:14:33;99733.91;;;19.52;50.37
57000;BME280;42891;50.006;21.964;2022-10-16T16:18:33;99730.09;;;19.47;51.34
57000;BME280;42891;50.006;21.964;2022-10-16T16:22:34;99756.25;;;19.36;51.50
57000;BME280;42891;50.006;21.964;2022-10-16T16:26:34;99751.81;;;19.20;51.40
57000;BME280;42891;50.006;21.964;2022-10-16T16:30:37;99753.56;;;18.80;52.44
57000;BME280;42891;50.006;21.964;2022-10-16T16:34:37;99759.88;;;19.12;52.91
57000;BME280;42891;50.006;21.964;2022-10-16T16:38:38;99744.81;;;19.11;53.69
57000;BME280;42891;50.006;21.964;2022-10-16T16:42:38;99763.03;;;19.16;53.54
57000;BME280;42891;50.006;21.964;2022-10-16T16:46:38;99755.34;;;19.04;53.89
57000;BME280;42891;50.006;21.964;2022-10-16T16:50:42;99760.75;;;18.96;53.81
57000;BME280;42891;50.006;21.964;2022-10-16T16:54:43;99761.06;;;18.85;54.29
57000;BME280;42891;50.006;21.964;2022-10-16T16:58:46;99763.63;;;18.70;54.59
57000;BME280;42891;50.006;21.964;2022-10-16T17:02:50;99752.44;;;18.50;54.88
57000;BME280;42891;50.006;21.964;2022-10-16T17:06:52;99770.34;;;18.49;55.23
57000;BME280;42891;50.006;21.964;2022-10-16T17:10:54;99777.38;;;18.42;54.31
57000;BME280;42891;50.006;21.964;2022-10-16T17:14:55;99794.41;;;18.41;55.47
57000;BME280;42891;50.006;21.964;2022-10-16T17:18:55;99788.72;;;18.28;55.09
57000;BME280;42891;50.006;21.964;2022-10-16T17:22:55;99799.22;;;18.21;55.55
57000;BME280;42891;50.006;21.964;2022-10-16T17:26:56;99801.75;;;18.06;55.74
57000;BME280;42891;50.006;21.964;2022-10-16T17:31:06;99808.25;;;18.03;55.98
57000;BME280;42891;50.006;21.964;2022-10-16T17:35:07;99809.69;;;17.89;56.27
57000;BME280;42891;50.006;21.964;2022-10-16T17:39:09;99790.25;;;17.71;56.25
57000;BME280;42891;50.006;21.964;2022-10-16T17:43:10;99818.50;;;17.82;56.23
57000;BME280;42891;50.006;21.964;2022-10-16T17:47:10;99826.34;;;17.75;57.33
57000;BME280;42891;50.006;21.964;2022-10-16T17:51:18;99828.91;;;17.50;56.41
57000;BME280;42891;50.006;21.964;2022-10-16T17:55:18;99823.03;;;17.38;56.49
57000;BME280;42891;50.006;21.964;2022-10-16T17:59:19;99820.84;;;17.34;57.07
57000;BME280;42891;50.006;21.964;2022-10-16T18:03:22;99838.88;;;17.40;57.52
57000;BME280;42891;50.006;21.964;2022-10-16T18:07:23;99837.31;;;17.29;56.51
57000;BME280;42891;50.006;21.964;2022-10-16T18:11:24;99834.97;;;17.26;57.95
57000;BME280;42891;50.006;21.964;2022-10-16T18:15:24;99832.78;;;17.21;58.79
57000;BME280;42891;50.006;21.964;2022-10-16T18:19:25;99830.44;;;17.18;58.61
57000;BME280;42891;50.006;21.964;2022-10-16T18:23:26;99841.22;;;17.09;58.34
57000;BME280;42891;50.006;21.964;2022-10-16T18:27:27;99841.38;;;17.07;59.02
57000;BME280;42891;50.006;21.964;2022-10-16T18:31:27;99821.19;;;16.86;59.32
57000;BME280;42891;50.006;21.964;2022-10-16T18:35:28;99846.50;;;17.00;59.06
57000;BME280;42891;50.006;21.964;2022-10-16T18:39:28;99847.81;;;16.96;59.48
57000;BME280;42891;50.006;21.964;2022-10-16T18:43:28;99849.56;;;16.87;58.40
57000;BME280;42891;50.006;21.964;2022-10-16T18:47:29;99822.09;;;16.69;59.25
57000;BME280;42891;50.006;21.964;2022-10-16T18:51:37;99837.09;;;16.70;58.57
57000;BME280;42891;50.006;21.964;2022-10-16T18:55:39;99834.88;;;16.65;59.12
57000;BME280;42891;50.006;21.964;2022-10-16T18:59:40;99859.09;;;16.72;59.32
57000;BME280;42891;50.006;21.964;2022-10-16T19:03:40;99857.59;;;16.69;60.10
57000;BME280;42891;50.006;21.964;2022-10-16T19:07:44;99840.06;;;16.49;59.60
57000;BME280;42891;50.006;21.964;2022-10-16T19:11:45;99875.34;;;16.61;59.06
57000;BME280;42891;50.006;21.964;2022-10-16T19:15:45;99876.25;;;16.51;58.55
57000;BME280;42891;50.006;21.964;2022-10-16T19:19:45;99863.47;;;16.37;59.51
57000;BME280;42891;50.006;21.964;2022-10-16T19:23:50;99889.75;;;16.32;59.32
57000;BME280;42891;50.006;21.964;2022-10-16T19:27:51;99893.69;;;16.28;60.03
57000;BME280;42891;50.006;21.964;2022-10-16T19:31:51;99908.75;;;16.19;59.97
57000;BME280;42891;50.006;21.964;2022-10-16T19:35:51;99904.19;;;16.29;59.94
57000;BME280;42891;50.006;21.964;2022-10-16T19:39:52;99900.47;;;16.22;60.30
57000;BME280;42891;50.006;21.964;2022-10-16T19:43:53;99899.78;;;16.20;60.68
57000;BME280;42891;50.006;21.964;2022-10-16T19:47:53;99892.53;;;16.12;61.59
57000;BME280;42891;50.006;21.964;2022-10-16T19:51:54;99918.28;;;16.22;60.60
57000;BME280;42891;50.006;21.964;2022-10-16T19:55:55;99923.78;;;16.20;61.63
57000;BME280;42891;50.006;21.964;2022-10-16T19:59:55;99925.06;;;16.16;61.76
57000;BME280;42891;50.006;21.964;2022-10-16T20:03:55;99930.19;;;15.99;61.38
57000;BME280;42891;50.006;21.964;2022-10-16T20:07:56;99950.03;;;16.15;61.44
57000;BME280;42891;50.006;21.964;2022-10-16T20:11:56;99945.00;;;16.12;61.29
57000;BME280;42891;50.006;21.964;2022-10-16T20:15:57;99928.81;;;15.95;61.16
57000;BME280;42891;50.006;21.964;2022-10-16T20:19:57;99943.88;;;16.05;60.79
57000;BME280;42891;50.006;21.964;2022-10-16T20:24:01;99954.53;;;16.14;61.35
57000;BME280;42891;50.006;21.964;2022-10-16T20:28:04;99959.34;;;16.01;60.66
57000;BME280;42891;50.006;21.964;2022-10-16T20:32:05;99956.88;;;15.90;60.96
57000;BME280;42891;50.006;21.964;2022-10-16T20:36:09;99947.50;;;15.85;61.15
57000;BME280;42891;50.006;21.964;2022-10-16T20:40:10;99973.97;;;15.87;61.38
57000;BME280;42891;50.006;21.964;2022-10-16T20:44:11;99958.56;;;15.71;61.84
57000;BME280;42891;50.006;21.964;2022-10-16T20:48:12;99969.09;;;15.73;61.20
57000;BME280;42891;50.006;21.964;2022-10-16T20:52:13;99963.47;;;15.38;62.70
57000;BME280;42891;50.006;21.964;2022-10-16T20:56:14;99979.78;;;15.53;62.27
57000;BME280;42891;50.006;21.964;2022-10-16T21:00:17;99968.47;;;15.41;62.73
57000;BME280;42891;50.006;21.964;2022-10-16T21:04:18;99957.84;;;15.41;62.61
57000;BME280;42891;50.006;21.964;2022-10-16T21:08:18;99979.25;;;15.49;62.62
57000;BME280;42891;50.006;21.964;2022-10-16T21:12:18;99987.09;;;15.51;62.67
57000;BME280;42891;50.006;21.964;2022-10-16T21:16:19;99980.22;;;15.48;62.70
57000;BME280;42891;50.006;21.964;2022-10-16T21:20:19;99976.63;;;15.40;62.85
57000;BME280;42891;50.006;21.964;2022-10-16T21:24:20;99984.97;;;15.55;62.77
57000;BME280;42891;50.006;21.964;2022-10-16T21:28:20;99997.16;;;15.47;63.02
57000;BME280;42891;50.006;21.964;2022-10-16T21:32:20;99996.50;;;15.45;62.71
57000;BME280;42891;50.006;21.964;2022-10-16T21:36:29;99981.97;;;15.30;63.46
57000;BME280;42891;50.006;21.964;2022-10-16T21:40:31;99980.94;;;15.31;64.03
57000;BME280;42891;50.006;21.964;2022-10-16T21:44:31;100000.56;;;15.40;64.16
57000;BME280;42891;50.006;21.964;2022-10-16T21:48:31;100010.50;;;15.38;64.16
57000;BME280;42891;50.006;21.964;2022-10-16T21:52:32;100019.59;;;15.35;64.13
57000;BME280;42891;50.006;21.964;2022-10-16T21:56:32;100025.78;;;15.36;64.60
57000;BME280;42891;50.006;21.964;2022-10-16T22:00:33;100021.00;;;15.20;64.51
57000;BME280;42891;50.006;21.964;2022-10-16T22:04:33;100018.06;;;15.13;65.13
57000;BME280;42891;50.006;21.964;2022-10-16T22:08:35;100017.38;;;15.11;64.97
57000;BME280;42891;50.006;21.964;2022-10-16T22:12:37;100030.53;;;15.12;65.01
57000;BME280;42891;50.006;21.964;2022-10-16T22:16:39;100027.88;;;15.03;65.15
57000;BME280;42891;50.006;21.964;2022-10-16T22:20:45;100012.47;;;14.87;65.48
57000;BME280;42891;50.006;21.964;2022-10-16T22:24:45;100023.81;;;14.89;65.09
57000;BME280;42891;50.006;21.964;2022-10-16T22:28:46;100048.88;;;14.96;65.59
57000;BME280;42891;50.006;21.964;2022-10-16T22:32:46;100045.78;;;14.91;65.53